createdAt,value
2018-10-19T00:01:09.083Z,62.40
2018-10-19T00:03:12.838Z,63.40
2018-10-19T00:05:16.623Z,62.50
2018-10-19T00:07:20.417Z,62.60
2018-10-19T00:09:24.116Z,62.70
2018-10-19T00:11:27.788Z,62.70
2018-10-19T00:13:31.514Z,62.80
2018-10-19T00:15:35.191Z,62.90
2018-10-19T00:17:38.899Z,63.70
2018-10-19T00:19:42.610Z,63.00
2018-10-19T00:21:46.282Z,63.00
2018-10-19T00:23:49.216Z,62.80
2018-10-19T00:25:52.152Z,62.80
2018-10-19T00:27:55.836Z,63.10
2018-10-19T00:29:58.767Z,63.00
2018-10-19T00:32:02.479Z,63.10
2018-10-19T00:34:05.440Z,63.00
2018-10-19T00:36:09.151Z,63.00
2018-10-19T00:38:12.943Z,63.10
2018-10-19T00:40:15.935Z,63.00
2018-10-19T00:42:18.840Z,63.10
2018-10-19T00:44:21.995Z,63.10
2018-10-19T00:46:25.663Z,63.30
2018-10-19T00:48:28.677Z,63.20
2018-10-19T00:50:32.391Z,63.30
2018-10-19T00:52:35.311Z,63.20
2018-10-19T00:54:38.236Z,63.30
2018-10-19T00:56:41.225Z,63.30
2018-10-19T00:58:44.162Z,63.30
2018-10-19T01:00:47.067Z,63.30
2018-10-19T01:02:50.993Z,63.60
2018-10-19T01:04:54.719Z,63.50
2018-10-19T01:06:58.366Z,63.60
2018-10-19T01:09:02.245Z,63.60
2018-10-19T01:11:05.190Z,63.60
2018-10-19T01:13:08.162Z,63.70
2018-10-19T01:15:11.996Z,64.00
2018-10-19T01:17:14.959Z,63.80
2018-10-19T01:19:17.808Z,63.90
2018-10-19T01:21:21.788Z,64.10
2018-10-19T01:23:24.764Z,63.90
2018-10-19T01:25:27.672Z,64.00
2018-10-19T01:27:30.783Z,64.10
2018-10-19T01:29:34.454Z,64.30
2018-10-19T01:31:38.159Z,64.30
2018-10-19T01:33:41.872Z,64.40
2018-10-19T01:35:46.047Z,64.50
2018-10-19T01:37:48.978Z,64.40
2018-10-19T01:39:52.788Z,64.50
2018-10-19T01:41:56.451Z,64.50
2018-10-19T01:43:59.352Z,64.40
2018-10-19T01:46:03.064Z,64.80
2018-10-19T01:48:05.985Z,64.70
2018-10-19T01:50:08.849Z,64.80
2018-10-19T01:52:11.829Z,64.70
2018-10-19T01:54:14.750Z,64.80
2018-10-19T01:56:18.405Z,65.30
2018-10-19T01:58:21.326Z,64.90
2018-10-19T02:00:24.204Z,65.00
2018-10-19T02:02:27.080Z,65.00
2018-10-19T02:04:29.969Z,65.10
2018-10-19T02:06:32.989Z,65.20
2018-10-19T02:08:36.381Z,65.20
2018-10-19T02:10:40.070Z,65.20
2018-10-19T02:12:43.039Z,65.10
2018-10-19T02:14:46.718Z,65.30
2018-10-19T02:16:49.627Z,65.10
2018-10-19T02:18:52.597Z,65.20
2018-10-19T02:20:56.282Z,65.30
2018-10-19T02:22:59.211Z,65.20
2018-10-19T02:25:02.293Z,65.30
2018-10-19T02:27:06.811Z,65.40
2018-10-19T02:29:11.149Z,65.30
2018-10-19T02:31:14.442Z,65.20
2018-10-19T02:33:17.397Z,65.40
2018-10-19T02:35:20.242Z,65.30
2018-10-19T02:37:23.235Z,65.30
2018-10-19T02:39:26.983Z,65.40
2018-10-19T02:41:29.854Z,65.40
2018-10-19T02:43:32.893Z,65.50
2018-10-19T02:45:35.778Z,65.50
2018-10-19T02:47:38.679Z,65.60
2018-10-19T02:49:42.452Z,65.80
2018-10-19T02:51:45.373Z,65.80
2018-10-19T02:53:48.319Z,65.80
2018-10-19T02:55:51.330Z,65.90
2018-10-19T02:57:54.289Z,65.90
2018-10-19T02:59:57.207Z,66.10
2018-10-19T03:02:01.110Z,66.10
2018-10-19T03:04:04.751Z,66.20
2018-10-19T03:06:07.637Z,66.00
2018-10-19T03:08:10.633Z,66.30
2018-10-19T03:10:14.332Z,66.20
2018-10-19T03:12:17.240Z,66.10
2018-10-19T03:14:21.067Z,66.30
2018-10-19T03:16:24.169Z,66.20
2018-10-19T03:18:27.054Z,66.10
2018-10-19T03:20:29.953Z,66.10
2018-10-19T03:22:32.845Z,66.10
2018-10-19T03:24:35.722Z,66.20
2018-10-19T03:26:38.621Z,66.20
2018-10-19T03:28:41.589Z,66.20
2018-10-19T03:30:44.523Z,66.20
2018-10-19T03:32:47.361Z,66.40
2018-10-19T03:34:51.007Z,66.50
2018-10-19T03:36:53.888Z,66.50
2018-10-19T03:38:56.822Z,66.50
2018-10-19T03:40:59.732Z,66.50
2018-10-19T03:43:03.377Z,67.50
2018-10-19T03:45:06.378Z,66.60
2018-10-19T03:47:09.354Z,66.60
2018-10-19T03:49:12.345Z,66.70
2018-10-19T03:51:16.133Z,66.90
2018-10-19T03:53:18.977Z,66.80
2018-10-19T03:55:24.103Z,66.90
2018-10-19T03:57:27.021Z,66.90
2018-10-19T03:59:29.916Z,66.90
2018-10-19T04:01:32.806Z,67.00
2018-10-19T04:03:35.723Z,67.10
2018-10-19T04:05:39.390Z,67.00
2018-10-19T04:07:42.282Z,67.00
2018-10-19T04:09:45.974Z,67.00
2018-10-19T04:11:49.299Z,66.90
2018-10-19T04:13:52.150Z,67.00
2018-10-19T04:15:55.106Z,67.20
2018-10-19T04:17:59.511Z,67.50
2018-10-19T04:20:02.453Z,67.40
2018-10-19T04:22:06.116Z,67.60
2018-10-19T04:24:09.033Z,67.50
2018-10-19T04:26:12.665Z,67.70
2018-10-19T04:28:15.573Z,67.60
2018-10-19T04:30:19.732Z,67.90
2018-10-19T04:32:23.128Z,67.90
2018-10-19T04:34:26.225Z,67.80
2018-10-19T04:36:29.158Z,67.80
2018-10-19T04:38:32.815Z,68.00
2018-10-19T04:40:36.355Z,67.90
2018-10-19T04:42:40.037Z,67.80
2018-10-19T04:44:42.918Z,67.80
2018-10-19T04:46:45.922Z,67.90
2018-10-19T04:48:49.571Z,68.20
2018-10-19T04:50:52.466Z,68.10
2018-10-19T04:52:55.539Z,68.10
2018-10-19T04:54:59.134Z,68.00
2018-10-19T04:57:02.100Z,67.90
2018-10-19T04:59:05.990Z,67.90
2018-10-19T05:01:09.654Z,67.90
2018-10-19T05:03:13.362Z,67.70
2018-10-19T05:05:16.287Z,67.70
2018-10-19T05:07:19.807Z,67.90
2018-10-19T05:09:22.692Z,67.90
2018-10-19T05:11:25.610Z,67.80
2018-10-19T05:13:29.281Z,68.00
2018-10-19T05:15:32.174Z,68.00
2018-10-19T05:17:36.610Z,68.10
2018-10-19T05:19:40.298Z,68.10
2018-10-19T05:21:43.193Z,68.10
2018-10-19T05:23:46.766Z,68.10
2018-10-19T05:25:49.789Z,68.20
2018-10-19T05:27:53.458Z,68.40
2018-10-19T05:29:57.152Z,68.40
2018-10-19T05:32:02.152Z,68.30
2018-10-19T05:34:05.137Z,68.50
2018-10-19T05:36:08.056Z,68.50
2018-10-19T05:38:11.775Z,69.30
2018-10-19T05:40:15.451Z,68.70
2018-10-19T05:42:19.926Z,69.10
2018-10-19T05:44:22.963Z,69.00
2018-10-19T05:46:25.938Z,69.20
2018-10-19T05:48:29.962Z,69.40
2018-10-19T05:50:33.637Z,69.60
2018-10-19T05:52:36.645Z,69.50
2018-10-19T05:54:40.334Z,69.70
2018-10-19T05:56:43.306Z,69.60
2018-10-19T05:58:47.446Z,69.90
2018-10-19T06:00:51.126Z,69.90
2018-10-19T06:02:54.783Z,69.80
2018-10-19T06:04:57.717Z,69.70
2018-10-19T06:07:00.683Z,69.80
2018-10-19T06:09:03.584Z,69.80
2018-10-19T06:11:06.616Z,69.80
2018-10-19T06:13:09.432Z,69.80
2018-10-19T06:15:12.309Z,69.70
2018-10-19T06:17:16.237Z,69.80
2018-10-19T06:19:19.140Z,69.80
2018-10-19T06:21:22.699Z,69.70
2018-10-19T06:23:26.374Z,69.70
2018-10-19T06:25:29.277Z,69.70
2018-10-19T06:27:32.935Z,69.70
2018-10-19T06:29:35.838Z,69.70
2018-10-19T06:31:38.866Z,69.70
2018-10-19T06:33:41.766Z,69.60
2018-10-19T06:35:44.935Z,69.70
2018-10-19T06:37:48.597Z,69.80
2018-10-19T06:39:51.617Z,69.70
2018-10-19T06:41:54.572Z,69.70
2018-10-19T06:43:57.584Z,69.70
2018-10-19T06:46:01.218Z,70.40
2018-10-19T06:48:04.224Z,69.70
2018-10-19T06:50:07.181Z,69.60
2018-10-19T06:52:10.128Z,69.60
2018-10-19T06:54:13.914Z,69.60
2018-10-19T06:56:17.630Z,69.60
2018-10-19T06:58:21.264Z,69.50
2018-10-19T07:00:24.170Z,69.50
2018-10-19T07:02:27.050Z,69.50
2018-10-19T07:04:30.057Z,69.50
2018-10-19T07:06:34.565Z,70.30
2018-10-19T07:08:38.272Z,68.80
2018-10-19T07:10:41.935Z,69.40
2018-10-19T07:12:44.981Z,69.30
2018-10-19T07:14:48.649Z,69.40
2018-10-19T07:16:52.314Z,69.30
2018-10-19T07:18:55.271Z,69.20
2018-10-19T07:20:58.910Z,69.20
2018-10-19T07:23:01.807Z,69.10
2018-10-19T07:25:04.848Z,69.10
2018-10-19T07:27:07.790Z,69.00
2018-10-19T07:29:11.480Z,69.10
2018-10-19T07:31:14.374Z,68.90
2018-10-19T07:33:18.026Z,68.80
2018-10-19T07:35:20.968Z,68.80
2018-10-19T07:37:24.606Z,68.70
2018-10-19T07:39:28.304Z,68.80
2018-10-19T07:41:31.485Z,68.60
2018-10-19T07:43:34.416Z,68.60
2018-10-19T07:45:37.382Z,68.70
2018-10-19T07:47:41.439Z,68.70
2018-10-19T07:49:45.086Z,68.60
2018-10-19T07:51:49.506Z,68.50
2018-10-19T07:53:52.644Z,68.50
2018-10-19T07:55:56.464Z,68.40
2018-10-19T07:58:00.098Z,68.20
2018-10-19T08:00:03.027Z,68.20
2018-10-19T08:02:06.017Z,68.20
2018-10-19T08:04:09.795Z,68.10
2018-10-19T08:06:12.745Z,68.10
2018-10-19T08:08:16.457Z,68.00
2018-10-19T08:10:20.141Z,67.90
2018-10-19T08:12:24.537Z,67.80
2018-10-19T08:14:28.093Z,67.80
2018-10-19T08:16:31.756Z,67.80
2018-10-19T08:18:35.141Z,67.70
2018-10-19T08:20:39.395Z,68.50
2018-10-19T08:22:43.053Z,67.70
2018-10-19T08:24:46.077Z,67.60
2018-10-19T08:26:49.706Z,67.50
2018-10-19T08:28:53.048Z,67.50
2018-10-19T08:30:56.976Z,67.80
2018-10-19T08:33:01.087Z,67.70
2018-10-19T08:35:04.101Z,67.90
2018-10-19T08:37:08.526Z,67.70
2018-10-19T08:39:11.437Z,68.10
2018-10-19T08:41:14.371Z,67.10
2018-10-19T08:43:18.098Z,66.80
2018-10-19T08:45:20.875Z,66.60
2018-10-19T08:47:23.996Z,66.50
2018-10-19T08:49:27.655Z,66.50
2018-10-19T08:51:30.537Z,66.50
2018-10-19T08:53:33.567Z,66.40
2018-10-19T08:55:37.730Z,66.40
2018-10-19T08:57:40.642Z,66.30
2018-10-19T08:59:43.619Z,66.20
2018-10-19T09:01:46.585Z,66.20
2018-10-19T09:03:49.454Z,66.10
2018-10-19T09:05:52.465Z,66.10
2018-10-19T09:07:55.445Z,66.00
2018-10-19T09:09:58.337Z,65.90
2018-10-19T09:12:02.101Z,65.90
2018-10-19T09:14:05.011Z,65.80
2018-10-19T09:16:08.669Z,65.70
2018-10-19T09:18:11.829Z,65.60
2018-10-19T09:20:15.490Z,65.50
2018-10-19T09:22:20.008Z,65.40
2018-10-19T09:24:23.109Z,65.30
2018-10-19T09:26:26.766Z,65.20
2018-10-19T09:28:29.652Z,65.10
2018-10-19T09:30:32.682Z,65.00
2018-10-19T09:32:36.916Z,64.80
2018-10-19T09:34:39.841Z,64.80
2018-10-19T09:36:42.850Z,64.60
2018-10-19T09:38:45.715Z,64.60
2018-10-19T09:40:48.774Z,64.50
2018-10-19T09:42:52.438Z,64.30
2018-10-19T09:44:55.416Z,64.20
2018-10-19T09:46:59.099Z,64.00
2018-10-19T09:49:02.572Z,63.90
2018-10-19T09:51:06.212Z,63.70
2018-10-19T09:53:09.181Z,63.60
2018-10-19T09:55:12.249Z,63.60
2018-10-19T09:57:15.731Z,63.60
2018-10-19T09:59:18.627Z,63.50
2018-10-19T10:01:22.685Z,64.10
2018-10-19T10:03:25.731Z,63.30
2018-10-19T10:05:29.389Z,63.30
2018-10-19T10:07:32.315Z,63.20
2018-10-19T10:09:35.965Z,63.00
2018-10-19T10:11:38.845Z,62.90
2018-10-19T10:13:41.766Z,62.80
2018-10-19T10:15:45.477Z,62.60
2018-10-19T10:17:48.317Z,62.50
2018-10-19T10:19:51.253Z,62.30
2018-10-19T10:21:55.090Z,62.30
2018-10-19T10:23:58.038Z,62.30
2018-10-19T10:26:01.807Z,62.20
2018-10-19T10:28:07.048Z,62.00
2018-10-19T10:30:09.906Z,62.10
2018-10-19T10:32:12.809Z,62.00
2018-10-19T10:34:16.000Z,62.00
2018-10-19T10:36:18.977Z,61.90
2018-10-19T10:38:23.498Z,61.70
2018-10-19T10:40:27.891Z,61.50
2018-10-19T10:42:30.785Z,61.40
2018-10-19T10:44:33.794Z,61.40
2018-10-19T10:46:37.449Z,61.20
2018-10-19T10:48:40.338Z,61.10
2018-10-19T10:50:43.342Z,61.20
2018-10-19T10:52:47.005Z,60.90
2018-10-19T10:54:49.918Z,60.80
2018-10-19T10:56:52.910Z,60.70
2018-10-19T10:58:56.570Z,61.20
2018-10-19T11:00:59.476Z,60.50
2018-10-19T11:03:02.499Z,60.30
2018-10-19T11:05:06.630Z,61.00
2018-10-19T11:07:09.636Z,60.10
2018-10-19T11:09:12.535Z,60.20
2018-10-19T11:11:16.946Z,59.80
2018-10-19T11:13:19.833Z,59.80
2018-10-19T11:15:22.835Z,59.70
2018-10-19T11:17:26.498Z,59.80
2018-10-19T11:19:30.217Z,59.70
2018-10-19T11:21:33.165Z,59.70
2018-10-19T11:23:36.061Z,59.60
2018-10-19T11:25:39.079Z,59.40
2018-10-19T11:27:43.482Z,59.30
2018-10-19T11:29:47.878Z,59.20
2018-10-19T11:31:50.773Z,59.20
2018-10-19T11:33:53.819Z,59.00
2018-10-19T11:35:57.456Z,58.80
2018-10-19T11:38:02.074Z,58.50
2018-10-19T11:40:10.228Z,58.40
2018-10-19T11:42:14.301Z,58.00
2018-10-19T11:44:18.704Z,58.10
2018-10-19T11:46:21.636Z,58.00
2018-10-19T11:48:25.486Z,57.80
2018-10-19T11:50:28.385Z,57.70
2018-10-19T11:52:32.050Z,57.60
2018-10-19T11:54:34.941Z,57.50
2018-10-19T11:56:37.941Z,57.40
2018-10-19T11:58:40.842Z,57.30
2018-10-19T12:00:43.817Z,57.10
2018-10-19T12:02:48.238Z,56.50
2018-10-19T12:04:51.889Z,56.40
2018-10-19T12:06:55.129Z,56.40
2018-10-19T12:08:58.030Z,56.40
2018-10-19T12:11:01.663Z,56.30
2018-10-19T12:13:04.815Z,56.20
2018-10-19T12:15:08.455Z,56.10
2018-10-19T12:17:12.612Z,55.90
2018-10-19T12:19:15.568Z,55.80
2018-10-19T12:21:18.489Z,56.00
2018-10-19T12:23:21.312Z,55.70
2018-10-19T12:25:24.940Z,55.50
2018-10-19T12:27:29.340Z,55.20
2018-10-19T12:29:32.226Z,55.20
2018-10-19T12:31:35.206Z,55.00
2018-10-19T12:33:38.632Z,54.90
2018-10-19T12:35:42.042Z,54.60
2018-10-19T12:37:44.953Z,54.40
2018-10-19T12:39:47.841Z,54.50
2018-10-19T12:41:51.525Z,54.50
2018-10-19T12:43:54.434Z,54.40
2018-10-19T12:46:18.077Z,54.10
2018-10-19T12:48:21.097Z,53.90
2018-10-19T12:50:24.758Z,53.70
2018-10-19T12:52:28.374Z,53.60
2018-10-19T12:54:31.320Z,53.40
2018-10-19T12:56:34.169Z,53.30
2018-10-19T12:58:38.294Z,53.20
2018-10-19T13:00:42.033Z,53.30
2018-10-19T13:02:44.928Z,53.20
2018-10-19T13:04:47.818Z,53.10
2018-10-19T13:06:50.841Z,52.90
2018-10-19T13:08:54.491Z,52.50
2018-10-19T13:10:57.934Z,52.30
2018-10-19T13:13:00.913Z,52.20
2018-10-19T13:15:04.640Z,51.80
2018-10-19T13:17:07.446Z,51.70
2018-10-19T13:19:10.429Z,51.60
2018-10-19T13:21:13.537Z,51.70
2018-10-19T13:23:17.109Z,51.50
2018-10-19T13:25:20.029Z,51.40
2018-10-19T13:27:22.954Z,51.50
2018-10-19T13:29:26.624Z,51.50
2018-10-19T13:31:30.869Z,51.50
2018-10-19T13:33:34.335Z,51.40
2018-10-19T13:35:37.261Z,51.40
2018-10-19T13:37:40.181Z,51.30
2018-10-19T13:39:43.081Z,51.30
2018-10-19T13:41:46.592Z,51.10
2018-10-19T13:43:50.238Z,51.00
2018-10-19T13:45:53.194Z,50.80
2018-10-19T13:47:57.093Z,50.70
2018-10-19T13:50:00.015Z,50.70
2018-10-19T13:52:02.928Z,50.80
2018-10-19T13:54:06.200Z,50.80
2018-10-19T13:56:09.856Z,50.70
2018-10-19T13:58:12.793Z,50.70
2018-10-19T14:00:17.178Z,50.50
2018-10-19T14:02:20.146Z,50.30
2018-10-19T14:04:23.014Z,50.50
2018-10-19T14:06:25.942Z,50.50
2018-10-19T14:08:29.613Z,50.40
2018-10-19T14:10:32.493Z,50.30
2018-10-19T14:12:35.439Z,50.20
2018-10-19T14:14:38.327Z,50.20
2018-10-19T14:16:41.263Z,50.20
2018-10-19T14:18:45.549Z,50.30
2018-10-19T14:20:49.953Z,50.20
2018-10-19T14:22:52.899Z,50.20
2018-10-19T14:24:56.533Z,50.20
2018-10-19T14:26:59.718Z,50.10
2018-10-19T14:29:04.123Z,50.10
2018-10-19T14:31:07.732Z,50.20
2018-10-19T14:33:10.781Z,50.10
2018-10-19T14:35:14.507Z,50.50
2018-10-19T14:37:18.105Z,50.30
2018-10-19T14:39:20.998Z,50.20
2018-10-19T14:41:23.993Z,50.30
2018-10-19T14:43:27.659Z,50.80
2018-10-19T14:45:31.447Z,50.40
2018-10-19T14:47:35.082Z,50.20
2018-10-19T14:49:37.982Z,50.40
2018-10-19T14:51:41.665Z,50.40
2018-10-19T14:53:44.765Z,50.40
2018-10-19T14:55:48.440Z,50.40
2018-10-19T14:57:51.349Z,50.40
2018-10-19T14:59:55.026Z,49.70
2018-10-19T15:01:57.921Z,50.00
2018-10-19T15:04:00.809Z,50.10
2018-10-19T15:06:03.798Z,50.20
2018-10-19T15:08:07.460Z,50.30
2018-10-19T15:10:10.647Z,50.30
2018-10-19T15:12:14.280Z,50.30
2018-10-19T15:14:17.193Z,50.30
2018-10-19T15:16:20.844Z,50.40
2018-10-19T15:18:23.757Z,50.20
2018-10-19T15:20:27.740Z,50.30
2018-10-19T15:22:30.839Z,50.10
2018-10-19T15:24:35.217Z,50.30
2018-10-19T15:26:38.225Z,50.00
2018-10-19T15:28:41.149Z,50.00
2018-10-19T15:30:44.785Z,50.00
2018-10-19T15:32:47.662Z,50.00
2018-10-19T15:34:50.566Z,50.10
2018-10-19T15:36:53.446Z,50.20
2018-10-19T15:38:57.926Z,50.30
2018-10-19T15:41:01.572Z,50.40
2018-10-19T15:43:05.233Z,50.40
2018-10-19T15:45:10.527Z,50.40
2018-10-19T15:47:14.843Z,50.50
2018-10-19T15:49:17.815Z,50.60
2018-10-19T15:51:21.516Z,50.70
2018-10-19T15:53:25.169Z,50.70
2018-10-19T15:55:28.096Z,50.60
2018-10-19T15:57:32.179Z,50.80
2018-10-19T15:59:35.195Z,50.70
2018-10-19T16:01:38.849Z,50.90
2018-10-19T16:03:42.618Z,50.80
2018-10-19T16:05:45.529Z,50.90
2018-10-19T16:07:49.229Z,50.80
2018-10-19T16:09:52.437Z,50.80
2018-10-19T16:11:56.873Z,51.00
2018-10-19T16:13:59.849Z,51.00
2018-10-19T16:16:02.776Z,51.10
2018-10-19T16:18:05.723Z,51.20
2018-10-19T16:20:08.590Z,51.20
2018-10-19T16:22:13.316Z,51.50
2018-10-19T16:24:17.705Z,51.60
2018-10-19T16:26:20.649Z,51.60
2018-10-19T16:28:24.365Z,51.90
2018-10-19T16:30:27.198Z,51.70
2018-10-19T16:32:31.077Z,52.00
2018-10-19T16:34:34.243Z,52.00
2018-10-19T16:36:37.161Z,52.10
2018-10-19T16:38:41.692Z,52.20
2018-10-19T16:40:45.385Z,52.30
2018-10-19T16:42:48.265Z,52.30
2018-10-19T16:44:51.185Z,52.50
2018-10-19T16:46:54.901Z,52.90
2018-10-19T16:48:57.794Z,52.70
2018-10-19T16:51:00.753Z,52.90
2018-10-19T16:53:03.642Z,53.00
2018-10-19T16:55:07.735Z,53.20
2018-10-19T16:57:11.464Z,53.30
2018-10-19T16:59:15.869Z,53.40
2018-10-19T17:01:18.797Z,53.40
2018-10-19T17:03:23.072Z,53.20
2018-10-19T17:05:25.893Z,53.60
2018-10-19T17:07:29.566Z,54.00
2018-10-19T17:09:32.470Z,53.90
2018-10-19T17:11:37.025Z,54.20
2018-10-19T17:13:40.785Z,54.30
2018-10-19T17:15:43.694Z,54.20
2018-10-19T17:17:47.637Z,54.50
2018-10-19T17:19:50.657Z,54.50
2018-10-19T17:21:53.652Z,54.70
2018-10-19T17:23:56.652Z,54.80
2018-10-19T17:26:00.345Z,55.10
2018-10-19T17:28:03.314Z,55.00
2018-10-19T17:30:06.219Z,55.20
2018-10-19T17:32:10.809Z,55.50
2018-10-19T17:34:13.943Z,55.40
2018-10-19T17:36:17.498Z,55.60
2018-10-19T17:38:20.397Z,56.20
2018-10-19T17:40:24.054Z,55.80
2018-10-19T17:42:26.943Z,55.80
2018-10-19T17:44:29.925Z,55.90
2018-10-19T17:46:32.826Z,56.00
2018-10-19T17:48:35.946Z,56.00
2018-10-19T17:50:39.589Z,56.20
2018-10-19T17:52:42.486Z,56.10
2018-10-19T17:54:45.581Z,56.20
2018-10-19T17:56:49.237Z,56.60
2018-10-19T17:58:52.121Z,56.40
2018-10-19T18:00:55.024Z,56.40
2018-10-19T18:02:57.925Z,56.50
2018-10-19T18:05:02.314Z,56.90
2018-10-19T18:07:05.989Z,56.80
2018-10-19T18:09:08.956Z,56.90
2018-10-19T18:11:12.671Z,57.90
2018-10-19T18:13:15.693Z,57.10
2018-10-19T18:15:18.599Z,57.20
2018-10-19T18:17:22.322Z,57.50
2018-10-19T18:19:26.101Z,57.60
2018-10-19T18:21:29.846Z,57.60
2018-10-19T18:23:32.687Z,57.60
2018-10-19T18:25:37.072Z,57.80
2018-10-19T18:27:42.354Z,58.00
2018-10-19T18:29:45.454Z,57.90
2018-10-19T18:31:48.381Z,57.90
2018-10-19T18:33:52.700Z,58.10
2018-10-19T18:35:56.402Z,58.40
2018-10-19T18:38:00.881Z,58.50
2018-10-19T18:40:03.762Z,58.40
2018-10-19T18:42:06.776Z,58.50
2018-10-19T18:44:11.355Z,58.70
2018-10-19T18:46:14.069Z,58.60
2018-10-19T18:48:17.002Z,58.80
2018-10-19T18:50:20.060Z,58.80
2018-10-19T18:52:22.817Z,58.80
2018-10-19T18:54:27.801Z,59.20
2018-10-19T18:56:30.749Z,59.10
2018-10-19T18:58:34.431Z,59.30
2018-10-19T19:00:39.054Z,59.30
2018-10-19T19:02:42.717Z,59.40
2018-10-19T19:04:46.446Z,59.30
2018-10-19T19:06:50.258Z,60.30
2018-10-19T19:08:53.977Z,59.70
2018-10-19T19:10:57.191Z,59.70
2018-10-19T19:13:00.102Z,59.70
2018-10-19T19:15:02.994Z,59.80
2018-10-19T19:17:06.460Z,59.90
2018-10-19T19:19:10.098Z,60.10
2018-10-19T19:21:13.766Z,60.00
2018-10-19T19:23:16.847Z,60.10
2018-10-19T19:25:35.441Z,60.30
2018-10-19T19:27:39.105Z,60.70
2018-10-19T19:29:41.981Z,60.50
2018-10-19T19:31:44.881Z,60.50
2018-10-19T19:34:03.653Z,60.60
2018-10-19T19:36:08.046Z,60.80
2018-10-19T19:38:11.048Z,60.80
2018-10-19T19:40:14.662Z,61.10
2018-10-19T19:42:33.196Z,62.00
2018-10-19T19:44:36.178Z,61.20
2018-10-19T19:46:39.093Z,61.10
2018-10-19T19:48:57.633Z,61.30
2018-10-19T19:51:01.417Z,61.30
2018-10-19T19:53:05.110Z,61.50
2018-10-19T19:55:07.989Z,61.30
2018-10-19T19:57:11.789Z,61.60
2018-10-19T19:59:14.848Z,61.60
2018-10-19T20:01:17.638Z,61.60
2018-10-19T20:03:20.759Z,61.70
2018-10-19T20:05:24.416Z,61.90
2018-10-19T20:07:27.294Z,61.80
2018-10-19T20:09:30.209Z,61.90
2018-10-19T20:11:33.371Z,61.90
2018-10-19T20:13:36.270Z,61.90
2018-10-19T20:15:39.991Z,61.90
2018-10-19T20:17:43.657Z,61.80
2018-10-19T20:19:46.554Z,61.80
2018-10-19T20:21:49.549Z,62.00
2018-10-19T20:23:53.882Z,62.30
2018-10-19T20:25:57.903Z,62.30
2018-10-19T20:28:01.714Z,62.50
2018-10-19T20:30:04.616Z,62.50
2018-10-19T20:32:07.572Z,62.50
2018-10-19T20:34:10.853Z,62.50
2018-10-19T20:36:13.742Z,63.30
2018-10-19T20:38:16.711Z,62.50
2018-10-19T20:40:19.571Z,62.50
2018-10-19T20:42:23.234Z,62.60
2018-10-19T20:44:26.118Z,62.50
2018-10-19T20:46:29.032Z,62.50
2018-10-19T20:48:33.241Z,62.50
2018-10-19T20:50:36.893Z,62.00
2018-10-19T20:52:39.812Z,62.40
2018-10-19T20:54:43.510Z,62.50
2018-10-19T20:56:46.468Z,62.50
2018-10-19T20:58:49.369Z,62.60
2018-10-19T21:00:53.037Z,63.20
2018-10-19T21:02:55.917Z,62.50
2018-10-19T21:04:58.949Z,62.50
2018-10-19T21:07:02.609Z,62.60
2018-10-19T21:09:05.497Z,62.60
2018-10-19T21:11:08.465Z,62.50
2018-10-19T21:13:12.112Z,62.60
2018-10-19T21:15:15.777Z,62.60
2018-10-19T21:17:18.677Z,62.60
2018-10-19T21:19:21.594Z,62.60
2018-10-19T21:21:24.800Z,62.60
2018-10-19T21:23:27.734Z,62.60
2018-10-19T21:25:31.397Z,62.60
2018-10-19T21:27:34.541Z,62.50
2018-10-19T21:29:39.170Z,62.50
2018-10-19T21:31:42.117Z,62.40
2018-10-19T21:33:45.829Z,62.50
2018-10-19T21:35:49.968Z,62.40
2018-10-19T21:37:52.892Z,62.40
2018-10-19T21:39:56.009Z,62.40
2018-10-19T21:42:00.527Z,62.50
2018-10-19T21:44:04.216Z,62.50
2018-10-19T21:46:07.621Z,62.40
2018-10-19T21:48:10.625Z,62.40
2018-10-19T21:50:13.682Z,62.50
2018-10-19T21:52:17.581Z,62.10
2018-10-19T21:54:20.497Z,62.50
2018-10-19T21:56:24.851Z,62.60
2018-10-19T21:58:27.862Z,62.60
2018-10-19T22:00:31.564Z,63.00
2018-10-19T22:02:34.443Z,62.70
2018-10-19T22:04:37.397Z,62.60
2018-10-19T22:06:40.305Z,62.60
2018-10-19T22:08:43.290Z,63.50
2018-10-19T22:10:46.206Z,62.80
2018-10-19T22:12:49.921Z,62.90
2018-10-19T22:14:52.849Z,63.00
2018-10-19T22:16:57.435Z,63.00
2018-10-19T22:19:01.074Z,63.20
2018-10-19T22:21:04.018Z,63.10
2018-10-19T22:23:07.109Z,63.30
2018-10-19T22:25:10.049Z,63.40
2018-10-19T22:27:12.872Z,63.40
2018-10-19T22:29:15.851Z,63.50
2018-10-19T22:31:19.538Z,63.70
2018-10-19T22:33:22.566Z,63.70
2018-10-19T22:35:27.454Z,64.80
2018-10-19T22:37:30.381Z,64.00
2018-10-19T22:39:34.069Z,65.00
2018-10-19T22:41:36.953Z,64.20
2018-10-19T22:43:41.302Z,64.40
2018-10-19T22:45:44.207Z,64.20
2018-10-19T22:47:47.250Z,64.40
2018-10-19T22:49:50.118Z,64.50
2018-10-19T22:51:53.831Z,64.60
2018-10-19T22:53:57.525Z,64.90
2018-10-19T22:56:00.415Z,64.80
2018-10-19T22:58:04.201Z,65.00
2018-10-19T23:00:07.862Z,65.50
2018-10-19T23:02:10.757Z,64.90
2018-10-19T23:04:13.870Z,65.10
2018-10-19T23:06:17.540Z,66.00
2018-10-19T23:08:21.243Z,65.10
2018-10-19T23:10:24.162Z,65.10
2018-10-19T23:12:27.813Z,65.30
2018-10-19T23:14:31.006Z,65.10
2018-10-19T23:16:33.919Z,65.20
2018-10-19T23:18:37.589Z,65.50
2018-10-19T23:20:40.520Z,65.40
2018-10-19T23:22:44.189Z,65.50
2018-10-19T23:24:47.081Z,65.40
2018-10-19T23:26:50.897Z,65.60
2018-10-19T23:28:53.876Z,65.50
2018-10-19T23:30:57.569Z,65.50
2018-10-19T23:33:00.650Z,65.40
2018-10-19T23:35:04.359Z,65.60
2018-10-19T23:37:08.143Z,65.50
2018-10-19T23:39:11.023Z,65.50
2018-10-19T23:41:13.966Z,65.50
2018-10-19T23:43:17.628Z,65.60
2018-10-19T23:45:21.285Z,65.60
2018-10-19T23:47:24.993Z,65.50
2018-10-19T23:49:27.933Z,65.50
2018-10-19T23:51:30.822Z,65.60
2018-10-19T23:53:33.753Z,65.70
2018-10-19T23:55:37.438Z,66.60
2018-10-19T23:57:40.325Z,65.80
2018-10-19T23:59:44.712Z,65.90
